KCKF

Crisp County-Cordele Airport

Cordele, Georgia, USA
METAR KCKF 241435Z AUTO 28005KT 10SM BKN021 29/23 A3007 RMK AO2 T02890229
Observed Flight Rules
Jun-24 @ 14:35 UTC (24 minutes ago) Marginal Visual Flight Rules
Wind Visibility Clouds
280° at 5 knots 10 miles
  • Broken at 2,100' AGL
Temperatures Readings
Current 29°C / 84°F
Dewpoint 23°C / 73°F
Humidity 70%
Altimeter 30.07" Hg
Pressure 1018 hPa
Elevation 91
METAR KCKF 241435Z AUTO 28005KT 10SM BKN021 29/23 A3007 RMK AO2 T02890229
Observed Flight Rules
Jun-24 @ 14:35 UTC
(24 minutes ago)
MVFR
Wind Visibility
280° at 5 knots 10 miles
Clouds
  • Broken at 2,100' AGL
Temperature Dewpoint
29°C / 84°F 23°C / 73°F
Humidity Altimeter Pressure
70% 30.07" Hg 1018 hPa